Balikesir, Turkey
Current Conditions -  °F | °C
As of 6:50 AM on Monday 26 Jan 2015 (Local Time) from LTBF Reporting Station
Broken Clouds Broken Clouds  
Wind Chill: 43°   Ceiling: 10000
Heat Index: 43°   Visibility: 6mi
Dew Point: 39°   Wind: 0mph
Humidity: 87%   Direction: NA
Pressure: 30"   Gusts: NA
Location:  39.65°N, 27.88°E
Report Text: LTBF 260350Z 00000KT 9999 SCT035 BKN100 06/04 Q1016 NOSIG
Loading
Personal Weather Stations






























Interactive Weather Map New forecast layout! Learn more

10-Day Weather Forecast

Advertisements
Track Severe Weather on mobile